首页
METAR-TAF:

METAR-TAF

机场 :

Valdosta Regional Airport

Valdosta, 喬治亞, 美国

纬度: 30-47N, 经度: 083-17W, 海拔: 62米

当前天气观测

该预报发布于53分钟前的21:53 UTC
风速5节,风向南转南东
温度 28°C
湿度 58%
气压 1015 hPa
能見度: 16.1公里
天空无云

METAR: KVLD 032153Z 16005KT 10SM CLR 28/19 A2998 RMK AO2 SLP159 T02780189 $

时间: 18:46 (22:46 UTC)

预报

该预报发布于5小时和26分钟前的17:20 UTC
预报有效从03日的 18点(UTC)到 04日的 18点(UTC)
风速节,风向
能見度: 10公里
少量云层高于3000英尺
散云层高于8000英尺
阴天层高于25000英尺
短暂存在
从 04日的 09点(UTC)到 04日的 12点(UTC)
能見度: 6.4公里
散云层高于1000英尺
轻雾
从 04日的 1200点(UTC)
风速节,风向
能見度: 10公里
多云层高于6000英尺
几率 30%
从 04日的 12点(UTC)到 04日的 18点(UTC)
能見度: 6.4公里
阴天层高于2500英尺, 积雨云.
雷暴, 雨

TAF: KVLD 031720Z 0318/0418 00000KT P6SM FEW030 SCT080 OVC250 TEMPO 0409/0412 4SM BR SCT010 FM041200 00000KT P6SM BKN060 PROB30 0412/0418 4SM TSRA OVC025CB

超过4000个机场的气象观测和天气预报(METAR&TAF报告)。

可查询的气象台以黄色和红色小点在地图上表示。

将鼠标移到小点上方,可查看气象台名称。

然后点击查看天气观测和预报。

如需切换地图:点击带黑十字的绿色按钮放大地图;点击带横线的绿色按钮缩小地图;或者点击绿色箭头查看邻近地区的地图。


METAR-TAF: